M/y Symphony — 6YS12 — position and weather

sailwx.info

Track history (hours):
 
Tides and Currents Weather Stations Pressure Air Temp Water Temp Dewpoint Dewpoint Depression Visibility Wind Speed Wind Dir Waves Ship Positions

M/y Symphony

Last reported at 2018-Apr-14 17:13 UTC. Time now 2018-Apr-22 18:15 UTC.
Position N 25°58' W 079°50'.
Warning: this ship's position is 8 days out of date.

Length 24 m.

Type: Pleasure craft. MMSI: 339413000.

Date/timePositionNaut miles runAvg speedWind from/ knotsBaromVisibWave heightAir tempDewpointWater temp
2018-Apr-14 17:13N 25°58' W 079°50'412.3
2018-Apr-14 16:55N 25°60' W 079°53'612.6
2018-Apr-14 16:26N 26°03' W 079°59'612.9
2018-Apr-14 15:58N 26°06' W 080°05'2 1.6
2018-Apr-14 14:50N 26°06' W 080°07'0 0.0
2018-Apr-14 14:23N 26°06' W 080°07'1 1.9
2018-Apr-14 13:53N 26°07' W 080°06'0 0.0
2018-Apr-14 13:26N 26°07' W 080°06'0 0.0
2018-Apr-14 12:56N 26°07' W 080°06'0 0.0
2018-Apr-14 12:26N 26°07' W 080°06'0 0.0
2018-Apr-14 11:59N 26°07' W 080°06'0 0.0
2018-Apr-14 11:26N 26°07' W 080°06'0 0.0
2018-Apr-14 10:59N 26°07' W 080°06'0 0.0
2018-Apr-14 10:29N 26°07' W 080°06'0 0.0
2018-Apr-14 09:59N 26°07' W 080°06'0 0.0
2018-Apr-14 09:29N 26°07' W 080°06'0 0.0
2018-Apr-14 08:59N 26°07' W 080°06'0 0.0
2018-Apr-14 08:29N 26°07' W 080°06'0 0.0
2018-Apr-14 07:59N 26°07' W 080°06'0 0.0
2018-Apr-14 07:29N 26°07' W 080°06'0 0.0
2018-Apr-14 06:59N 26°07' W 080°06'0 0.0
2018-Apr-14 06:29N 26°07' W 080°06'0 0.0
2018-Apr-14 05:59N 26°07' W 080°06'0 0.0
2018-Apr-14 05:29N 26°07' W 080°06'0 0.0
2018-Apr-14 04:59N 26°07' W 080°06'0 0.0
2018-Apr-14 04:20N 26°07' W 080°06'0 0.0
2018-Apr-14 03:50N 26°07' W 080°06'0 0.0
2018-Apr-14 03:20N 26°07' W 080°06'0 0.0
2018-Apr-14 02:50N 26°07' W 080°06'0 0.0
2018-Apr-14 02:23N 26°07' W 080°06'0 0.0
2018-Apr-14 01:53N 26°07' W 080°06'0 0.0
2018-Apr-14 01:20N 26°07' W 080°06'0 0.0
2018-Apr-14 00:53N 26°07' W 080°06'0 0.0
2018-Apr-14 00:23N 26°07' W 080°06'0 0.0
2018-Apr-13 23:56N 26°07' W 080°06'0 0.0
2018-Apr-13 23:26N 26°07' W 080°06'0 0.0
2018-Apr-13 22:56N 26°07' W 080°06'0 0.0
2018-Apr-13 22:26N 26°07' W 080°06'0 0.0
2018-Apr-13 21:56N 26°07' W 080°06'0 0.0
2018-Apr-13 21:26N 26°07' W 080°06'0 0.0
2018-Apr-13 20:59N 26°07' W 080°06'0 0.0
2018-Apr-13 20:29N 26°07' W 080°06'0 0.0
2018-Apr-13 19:59N 26°07' W 080°06'0 0.0
2018-Apr-13 19:29N 26°07' W 080°06'0 0.0
2018-Apr-13 18:59N 26°07' W 080°06'0 0.0
2018-Apr-13 18:29N 26°07' W 080°06'0 0.0
2018-Apr-13 17:56N 26°07' W 080°06'0 0.0
2018-Apr-13 17:29N 26°07' W 080°06'0 0.0
2018-Apr-13 16:59N 26°07' W 080°06'1 1.7
2018-Apr-13 16:30N 26°06' W 080°07'2 3.1
2018-Apr-13 15:55N 26°06' W 080°05'2 3.1
2018-Apr-13 15:23N 26°06' W 080°07'0 1.1
2018-Apr-13 14:58N 26°07' W 080°07'2 4.8
2018-Apr-13 14:29N 26°09' W 080°06'3 5.4
2018-Apr-13 13:56N 26°12' W 080°06'3 5.2
2018-Apr-13 13:25N 26°14' W 080°06'  
Track history (hours):
 
Tides and Currents Weather Stations Pressure Air Temp Water Temp Dewpoint Dewpoint Depression Visibility Wind Speed Wind Dir Waves Ship Positions

M/y Symphony

Last reported at 2018-Apr-14 17:13 UTC. Time now 2018-Apr-22 18:15 UTC.
Position N 25°58' W 079°50'.
Warning: this ship's position is 8 days out of date.

Length 24 m.

Type: Pleasure craft. MMSI: 339413000.

Date/timePositionNaut miles runAvg speedWind from/ knotsBaromVisibWave heightAir tempDewpointWater temp
2018-Apr-14 17:13N 25°58' W 079°50'412.3
2018-Apr-14 16:55N 25°60' W 079°53'612.6
2018-Apr-14 16:26N 26°03' W 079°59'612.9
2018-Apr-14 15:58N 26°06' W 080°05'2 1.6
2018-Apr-14 14:50N 26°06' W 080°07'0 0.0
2018-Apr-14 14:23N 26°06' W 080°07'1 1.9
2018-Apr-14 13:53N 26°07' W 080°06'0 0.0
2018-Apr-14 13:26N 26°07' W 080°06'0 0.0
2018-Apr-14 12:56N 26°07' W 080°06'0 0.0
2018-Apr-14 12:26N 26°07' W 080°06'0 0.0
2018-Apr-14 11:59N 26°07' W 080°06'0 0.0
2018-Apr-14 11:26N 26°07' W 080°06'0 0.0
2018-Apr-14 10:59N 26°07' W 080°06'0 0.0
2018-Apr-14 10:29N 26°07' W 080°06'0 0.0
2018-Apr-14 09:59N 26°07' W 080°06'0 0.0
2018-Apr-14 09:29N 26°07' W 080°06'0 0.0
2018-Apr-14 08:59N 26°07' W 080°06'0 0.0
2018-Apr-14 08:29N 26°07' W 080°06'0 0.0
2018-Apr-14 07:59N 26°07' W 080°06'0 0.0
2018-Apr-14 07:29N 26°07' W 080°06'0 0.0
2018-Apr-14 06:59N 26°07' W 080°06'0 0.0
2018-Apr-14 06:29N 26°07' W 080°06'0 0.0
2018-Apr-14 05:59N 26°07' W 080°06'0 0.0
2018-Apr-14 05:29N 26°07' W 080°06'0 0.0
2018-Apr-14 04:59N 26°07' W 080°06'0 0.0
2018-Apr-14 04:20N 26°07' W 080°06'0 0.0
2018-Apr-14 03:50N 26°07' W 080°06'0 0.0
2018-Apr-14 03:20N 26°07' W 080°06'0 0.0
2018-Apr-14 02:50N 26°07' W 080°06'0 0.0
2018-Apr-14 02:23N 26°07' W 080°06'0 0.0
2018-Apr-14 01:53N 26°07' W 080°06'0 0.0
2018-Apr-14 01:20N 26°07' W 080°06'0 0.0
2018-Apr-14 00:53N 26°07' W 080°06'0 0.0
2018-Apr-14 00:23N 26°07' W 080°06'0 0.0
2018-Apr-13 23:56N 26°07' W 080°06'0 0.0
2018-Apr-13 23:26N 26°07' W 080°06'0 0.0
2018-Apr-13 22:56N 26°07' W 080°06'0 0.0
2018-Apr-13 22:26N 26°07' W 080°06'0 0.0
2018-Apr-13 21:56N 26°07' W 080°06'0 0.0
2018-Apr-13 21:26N 26°07' W 080°06'0 0.0
2018-Apr-13 20:59N 26°07' W 080°06'0 0.0
2018-Apr-13 20:29N 26°07' W 080°06'0 0.0
2018-Apr-13 19:59N 26°07' W 080°06'0 0.0
2018-Apr-13 19:29N 26°07' W 080°06'0 0.0
2018-Apr-13 18:59N 26°07' W 080°06'0 0.0
2018-Apr-13 18:29N 26°07' W 080°06'0 0.0
2018-Apr-13 17:56N 26°07' W 080°06'0 0.0
2018-Apr-13 17:29N 26°07' W 080°06'0 0.0
2018-Apr-13 16:59N 26°07' W 080°06'1 1.7
2018-Apr-13 16:30N 26°06' W 080°07'2 3.1
2018-Apr-13 15:55N 26°06' W 080°05'2 3.1
2018-Apr-13 15:23N 26°06' W 080°07'0 1.1
2018-Apr-13 14:58N 26°07' W 080°07'2 4.8
2018-Apr-13 14:29N 26°09' W 080°06'3 5.4
2018-Apr-13 13:56N 26°12' W 080°06'3 5.2
2018-Apr-13 13:25N 26°14' W 080°06'  

Dump ship's entire track history